createdAt,value
2017-07-03T00:02:16.762Z,11.90
2017-07-03T00:04:45.971Z,12.00
2017-07-03T00:07:14.485Z,12.00
2017-07-03T00:09:42.945Z,12.00
2017-07-03T00:12:11.593Z,11.90
2017-07-03T00:14:40.803Z,11.90
2017-07-03T00:17:10.026Z,11.90
2017-07-03T00:19:38.538Z,11.80
2017-07-03T00:22:07.778Z,11.80
2017-07-03T00:24:36.876Z,11.80
2017-07-03T00:27:05.429Z,11.80
2017-07-03T00:29:33.953Z,11.80
2017-07-03T00:32:02.442Z,11.70
2017-07-03T00:34:31.034Z,11.80
2017-07-03T00:36:59.932Z,11.80
2017-07-03T00:39:28.486Z,11.80
2017-07-03T00:41:57.777Z,11.80
2017-07-03T00:44:27.038Z,11.70
2017-07-03T00:46:55.545Z,11.70
2017-07-03T00:49:24.062Z,11.70
2017-07-03T00:51:52.768Z,11.80
2017-07-03T00:54:21.269Z,11.80
2017-07-03T00:56:49.798Z,11.80
2017-07-03T00:59:19.044Z,11.80
2017-07-03T01:01:47.533Z,11.70
2017-07-03T01:04:16.403Z,11.80
2017-07-03T01:06:44.931Z,11.80
2017-07-03T01:09:13.442Z,11.80
2017-07-03T01:11:42.683Z,11.70
2017-07-03T01:14:11.301Z,11.70
2017-07-03T01:16:39.780Z,11.70
2017-07-03T01:19:08.390Z,11.70
2017-07-03T01:21:37.011Z,11.70
2017-07-03T01:24:05.492Z,11.70
2017-07-03T01:26:34.425Z,11.70
2017-07-03T01:29:03.329Z,11.60
2017-07-03T01:31:31.898Z,11.60
2017-07-03T01:34:00.375Z,11.70
2017-07-03T01:36:28.872Z,11.70
2017-07-03T01:38:57.424Z,11.70
2017-07-03T01:41:25.964Z,11.70
2017-07-03T01:43:56.733Z,11.70
2017-07-03T01:46:25.233Z,11.60
2017-07-03T01:48:54.036Z,11.70
2017-07-03T01:51:22.520Z,11.70
2017-07-03T01:53:51.000Z,11.60
2017-07-03T01:56:19.868Z,11.60
2017-07-03T01:58:48.525Z,11.70
2017-07-03T02:01:18.046Z,11.60
2017-07-03T02:03:46.789Z,11.50
2017-07-03T02:06:15.625Z,11.60
2017-07-03T02:08:44.149Z,11.60
2017-07-03T02:11:12.636Z,11.60
2017-07-03T02:13:41.102Z,11.60
2017-07-03T02:16:09.644Z,11.50
2017-07-03T02:18:38.453Z,11.50
2017-07-03T02:21:07.066Z,11.50
2017-07-03T02:23:36.054Z,11.50
2017-07-03T02:26:04.516Z,11.50
2017-07-03T02:28:32.999Z,11.60
2017-07-03T02:31:01.491Z,11.50
2017-07-03T02:33:30.047Z,11.50
2017-07-03T02:35:59.273Z,11.60
2017-07-03T02:38:27.782Z,11.50
2017-07-03T02:40:56.565Z,11.60
2017-07-03T02:43:25.538Z,11.60
2017-07-03T02:45:54.116Z,11.60
2017-07-03T02:48:22.657Z,11.50
2017-07-03T02:50:51.092Z,11.60
2017-07-03T02:53:19.548Z,11.60
2017-07-03T02:55:48.485Z,11.50
2017-07-03T02:58:17.063Z,11.60
2017-07-03T03:00:45.519Z,11.60
2017-07-03T03:03:14.034Z,11.60
2017-07-03T03:05:42.812Z,11.60
2017-07-03T03:08:15.045Z,11.60
2017-07-03T03:10:43.497Z,11.60
2017-07-03T03:13:11.996Z,11.60
2017-07-03T03:15:40.584Z,11.60
2017-07-03T03:18:11.178Z,11.60
2017-07-03T03:20:39.685Z,11.60
2017-07-03T03:23:10.440Z,11.70
2017-07-03T03:25:39.773Z,11.70
2017-07-03T03:28:08.277Z,11.70
2017-07-03T03:30:37.242Z,11.70
2017-07-03T03:33:05.714Z,11.60
2017-07-03T03:35:34.217Z,11.70
2017-07-03T03:38:02.822Z,11.70
2017-07-03T03:40:31.345Z,11.70
2017-07-03T03:43:00.573Z,11.70
2017-07-03T03:45:29.271Z,11.60
2017-07-03T03:47:58.130Z,11.70
2017-07-03T03:50:27.492Z,11.70
2017-07-03T03:52:55.962Z,11.70
2017-07-03T03:55:24.777Z,11.80
2017-07-03T03:57:53.424Z,11.80
2017-07-03T04:00:22.053Z,11.70
2017-07-03T04:02:50.513Z,11.70
2017-07-03T04:05:19.436Z,11.80
2017-07-03T04:07:48.071Z,11.80
2017-07-03T04:10:16.555Z,11.80
2017-07-03T04:12:45.209Z,11.80
2017-07-03T04:15:14.684Z,12.00
2017-07-03T04:17:43.548Z,11.90
2017-07-03T04:20:12.114Z,12.10
2017-07-03T04:22:40.610Z,12.10
2017-07-03T04:25:09.113Z,12.20
2017-07-03T04:27:37.605Z,12.20
2017-07-03T04:30:06.602Z,12.30
2017-07-03T04:32:35.173Z,12.30
2017-07-03T04:35:03.439Z,12.40
2017-07-03T04:37:32.105Z,12.50
2017-07-03T04:40:00.742Z,12.50
2017-07-03T04:42:29.254Z,12.60
2017-07-03T04:44:58.515Z,12.60
2017-07-03T04:47:27.391Z,12.60
2017-07-03T04:49:55.951Z,12.80
2017-07-03T04:52:24.850Z,12.90
2017-07-03T04:54:53.372Z,12.90
2017-07-03T04:57:21.942Z,13.10
2017-07-03T04:59:50.606Z,13.10
2017-07-03T05:02:19.137Z,13.30
2017-07-03T05:04:48.389Z,14.30
2017-07-03T05:07:16.989Z,14.20
2017-07-03T05:09:45.966Z,14.80
2017-07-03T05:12:14.475Z,15.00
2017-07-03T05:14:43.175Z,15.30
2017-07-03T05:17:11.817Z,15.60
2017-07-03T05:19:40.434Z,16.30
2017-07-03T05:22:10.124Z,16.40
2017-07-03T05:24:38.669Z,16.60
2017-07-03T05:27:07.153Z,17.00
2017-07-03T05:29:36.508Z,17.30
2017-07-03T05:32:06.357Z,17.50
2017-07-03T05:34:34.841Z,17.60
2017-07-03T05:37:03.425Z,17.50
2017-07-03T05:39:31.886Z,17.40
2017-07-03T05:42:00.380Z,17.50
2017-07-03T05:44:29.160Z,17.20
2017-07-03T05:46:57.836Z,17.20
2017-07-03T05:49:26.811Z,16.80
2017-07-03T05:51:55.269Z,16.40
2017-07-03T05:54:24.020Z,16.10
2017-07-03T05:56:52.753Z,16.10
2017-07-03T05:59:21.460Z,15.40
2017-07-03T06:01:49.940Z,15.20
2017-07-03T06:04:18.748Z,15.20
2017-07-03T06:06:47.385Z,15.10
2017-07-03T06:09:16.193Z,15.00
2017-07-03T06:11:44.941Z,15.10
2017-07-03T06:14:13.528Z,15.10
2017-07-03T06:16:42.033Z,15.00
2017-07-03T06:19:10.685Z,15.00
2017-07-03T06:21:39.246Z,15.10
2017-07-03T06:24:07.779Z,15.10
2017-07-03T06:26:36.990Z,15.20
2017-07-03T06:29:05.908Z,15.10
2017-07-03T06:31:34.540Z,15.30
2017-07-03T06:34:02.999Z,15.30
2017-07-03T06:36:31.512Z,15.50
2017-07-03T06:38:59.973Z,15.80
2017-07-03T06:41:28.764Z,16.00
2017-07-03T06:43:57.273Z,16.20
2017-07-03T06:46:25.719Z,16.10
2017-07-03T06:48:54.273Z,16.20
2017-07-03T06:51:22.955Z,16.30
2017-07-03T06:53:51.467Z,16.30
2017-07-03T06:56:19.937Z,16.40
2017-07-03T06:58:48.806Z,16.60
2017-07-03T07:01:17.378Z,16.70
2017-07-03T07:03:45.921Z,16.90
2017-07-03T07:06:14.406Z,17.10
2017-07-03T07:08:42.900Z,17.00
2017-07-03T07:11:11.508Z,17.10
2017-07-03T07:13:40.249Z,16.90
2017-07-03T07:16:08.733Z,17.10
2017-07-03T07:18:37.240Z,17.10
2017-07-03T07:21:06.079Z,17.30
2017-07-03T07:23:35.096Z,17.40
2017-07-03T07:26:03.767Z,17.40
2017-07-03T07:28:32.418Z,17.50
2017-07-03T07:31:00.997Z,17.50
2017-07-03T07:33:31.888Z,17.80
2017-07-03T07:36:00.549Z,17.70
2017-07-03T07:38:29.174Z,17.60
2017-07-03T07:40:57.702Z,17.50
2017-07-03T07:43:26.205Z,17.60
2017-07-03T07:45:54.741Z,17.60
2017-07-03T07:48:24.981Z,17.50
2017-07-03T07:50:54.491Z,17.40
2017-07-03T07:53:23.960Z,18.00
2017-07-03T07:55:53.673Z,17.90
2017-07-03T07:58:22.228Z,18.10
2017-07-03T08:00:50.803Z,18.30
2017-07-03T08:03:19.322Z,18.40
2017-07-03T08:05:47.798Z,18.40
2017-07-03T08:08:16.303Z,18.80
2017-07-03T08:10:45.782Z,19.70
2017-07-03T08:13:14.570Z,19.70
2017-07-03T08:15:43.165Z,19.50
2017-07-03T08:18:11.814Z,19.60
2017-07-03T08:20:40.318Z,20.10
2017-07-03T08:23:08.965Z,21.00
2017-07-03T08:25:37.608Z,21.60
2017-07-03T08:28:06.069Z,22.60
2017-07-03T08:30:34.544Z,22.70
2017-07-03T08:33:02.989Z,23.20
2017-07-03T08:35:32.426Z,24.00
2017-07-03T08:38:01.256Z,23.90
2017-07-03T08:40:30.134Z,23.90
2017-07-03T08:42:59.890Z,23.70
2017-07-03T08:45:28.497Z,24.30
2017-07-03T08:47:56.994Z,24.30
2017-07-03T08:50:25.573Z,24.20
2017-07-03T08:52:54.048Z,24.70
2017-07-03T08:55:22.553Z,24.60
2017-07-03T08:57:51.730Z,24.30
2017-07-03T09:00:20.311Z,23.90
2017-07-03T09:02:49.032Z,23.70
2017-07-03T09:05:17.666Z,23.90
2017-07-03T09:07:46.146Z,23.40
2017-07-03T09:10:14.692Z,23.10
2017-07-03T09:12:43.164Z,22.80
2017-07-03T09:15:11.626Z,23.10
2017-07-03T09:17:40.098Z,23.10
2017-07-03T09:20:08.583Z,23.20
2017-07-03T09:22:37.989Z,23.50
2017-07-03T09:25:06.672Z,23.70
2017-07-03T09:27:35.324Z,23.90
2017-07-03T09:30:03.874Z,23.90
2017-07-03T09:32:32.340Z,24.30
2017-07-03T09:35:00.942Z,24.00
2017-07-03T09:37:29.901Z,23.80
2017-07-03T09:39:58.625Z,23.70
2017-07-03T09:42:27.124Z,23.40
2017-07-03T09:44:56.211Z,23.40
2017-07-03T09:47:25.365Z,23.70
2017-07-03T09:49:53.938Z,24.00
2017-07-03T09:52:22.635Z,23.30
2017-07-03T09:54:51.119Z,23.10
2017-07-03T09:57:19.846Z,23.10
2017-07-03T09:59:48.634Z,22.90
2017-07-03T10:02:17.246Z,23.20
2017-07-03T10:04:46.003Z,23.00
2017-07-03T10:07:14.662Z,22.60
2017-07-03T10:09:43.886Z,22.50
2017-07-03T10:12:12.381Z,22.60
2017-07-03T10:14:40.935Z,22.50
2017-07-03T10:17:09.685Z,23.10
2017-07-03T10:19:38.503Z,23.40
2017-07-03T10:22:06.973Z,23.70
2017-07-03T10:24:35.551Z,23.70
2017-07-03T10:27:04.030Z,23.20
2017-07-03T10:29:32.836Z,22.90
2017-07-03T10:32:01.404Z,23.10
2017-07-03T10:34:30.128Z,23.70
2017-07-03T10:36:58.641Z,24.50
2017-07-03T10:39:27.118Z,24.30
2017-07-03T10:41:55.663Z,24.40
2017-07-03T10:44:24.178Z,24.20
2017-07-03T10:46:52.751Z,23.50
2017-07-03T10:49:21.209Z,23.20
2017-07-03T10:51:49.817Z,23.50
2017-07-03T10:54:18.784Z,23.40
2017-07-03T10:56:47.262Z,23.50
2017-07-03T10:59:16.299Z,24.20
2017-07-03T11:01:44.893Z,24.70
2017-07-03T11:04:13.339Z,24.50
2017-07-03T11:06:41.894Z,24.10
2017-07-03T11:09:11.212Z,24.50
2017-07-03T11:11:40.193Z,24.40
2017-07-03T11:14:08.664Z,25.10
2017-07-03T11:16:37.899Z,24.90
2017-07-03T11:19:06.544Z,24.90
2017-07-03T11:21:35.882Z,25.50
2017-07-03T11:24:04.773Z,25.40
2017-07-03T11:26:33.378Z,25.60
2017-07-03T11:29:01.204Z,25.80
2017-07-03T11:32:32.787Z,26.70
2017-07-03T11:35:01.116Z,26.50
2017-07-03T11:37:29.885Z,26.40
2017-07-03T11:39:57.804Z,26.50
2017-07-03T11:42:26.313Z,25.70
2017-07-03T11:44:54.792Z,25.00
2017-07-03T11:47:23.282Z,25.10
2017-07-03T11:49:51.965Z,25.50
2017-07-03T11:52:20.417Z,25.90
2017-07-03T11:54:48.960Z,25.60
2017-07-03T11:57:18.631Z,25.60
2017-07-03T11:59:47.921Z,25.20
2017-07-03T12:02:16.389Z,24.40
2017-07-03T12:04:44.925Z,24.60
2017-07-03T12:07:13.381Z,24.30
2017-07-03T12:09:41.943Z,24.40
2017-07-03T12:12:11.298Z,24.10
2017-07-03T12:14:39.752Z,24.10
2017-07-03T12:17:08.348Z,24.60
2017-07-03T12:19:36.935Z,24.40
2017-07-03T12:22:07.328Z,25.20
2017-07-03T12:24:38.161Z,25.40
2017-07-03T12:27:08.082Z,25.10
2017-07-03T12:29:41.181Z,25.10
2017-07-03T12:32:09.682Z,25.30
2017-07-03T12:34:38.307Z,25.60
2017-07-03T12:37:06.171Z,26.50
2017-07-03T12:39:34.692Z,26.70
2017-07-03T12:42:05.339Z,25.90
2017-07-03T12:44:33.409Z,26.30
2017-07-03T12:47:04.418Z,25.80
2017-07-03T12:49:34.455Z,25.40
2017-07-03T12:52:03.605Z,24.70
2017-07-03T12:54:32.100Z,25.50
2017-07-03T12:57:00.017Z,26.40
2017-07-03T12:59:28.555Z,27.00
2017-07-03T13:01:56.461Z,27.10
2017-07-03T13:04:25.133Z,26.40
2017-07-03T13:06:55.201Z,27.70
2017-07-03T13:09:23.659Z,27.50
2017-07-03T13:11:51.562Z,27.30
2017-07-03T13:14:19.425Z,27.40
2017-07-03T13:16:47.647Z,27.10
2017-07-03T13:19:15.677Z,27.10
2017-07-03T13:21:44.185Z,25.90
2017-07-03T13:24:12.966Z,25.00
2017-07-03T13:26:41.553Z,25.10
2017-07-03T13:29:16.869Z,25.20
2017-07-03T13:31:46.028Z,25.00
2017-07-03T13:34:15.097Z,24.40
2017-07-03T13:36:43.823Z,24.70
2017-07-03T13:39:12.445Z,25.10
2017-07-03T13:41:41.056Z,24.80
2017-07-03T13:44:09.573Z,24.80
2017-07-03T13:46:38.092Z,24.30
2017-07-03T13:49:06.585Z,24.10
2017-07-03T13:51:35.160Z,23.40
2017-07-03T13:54:05.162Z,23.90
2017-07-03T13:56:33.677Z,24.30
2017-07-03T13:59:02.140Z,24.40
2017-07-03T14:01:30.749Z,24.40
2017-07-03T14:03:59.284Z,24.40
2017-07-03T14:06:28.686Z,24.20
2017-07-03T14:08:57.917Z,23.80
2017-07-03T14:11:26.416Z,23.90
2017-07-03T14:13:55.390Z,23.90
2017-07-03T14:16:24.048Z,23.50
2017-07-03T14:18:52.612Z,23.50
2017-07-03T14:21:22.004Z,24.00
2017-07-03T14:23:50.622Z,24.40
2017-07-03T14:26:29.828Z,24.30
2017-07-03T14:28:58.830Z,24.20
2017-07-03T14:31:27.357Z,24.40
2017-07-03T14:33:56.118Z,24.40
2017-07-03T14:36:24.628Z,24.30
2017-07-03T14:38:53.099Z,24.30
2017-07-03T14:41:21.698Z,24.10
2017-07-03T14:43:50.429Z,24.00
2017-07-03T14:46:19.217Z,24.20
2017-07-03T14:48:48.470Z,23.60
2017-07-03T14:51:17.134Z,23.60
2017-07-03T14:53:46.936Z,23.40
2017-07-03T14:56:15.681Z,23.40
2017-07-03T14:58:44.456Z,23.20
2017-07-03T15:01:13.141Z,23.10
2017-07-03T15:03:42.440Z,23.10
2017-07-03T15:06:10.962Z,23.10
2017-07-03T15:08:40.991Z,23.20
2017-07-03T15:11:09.653Z,23.30
2017-07-03T15:13:38.285Z,23.50
2017-07-03T15:16:06.817Z,23.30
2017-07-03T15:18:35.483Z,23.20
2017-07-03T15:21:04.231Z,23.10
2017-07-03T15:23:32.889Z,23.10
2017-07-03T15:26:01.489Z,22.80
2017-07-03T15:28:31.019Z,22.70
2017-07-03T15:30:59.521Z,22.60
2017-07-03T15:33:28.398Z,22.50
2017-07-03T15:35:56.987Z,22.30
2017-07-03T15:38:25.493Z,22.30
2017-07-03T15:40:54.218Z,22.20
2017-07-03T15:43:23.167Z,22.00
2017-07-03T15:45:51.833Z,21.80
2017-07-03T15:48:20.389Z,21.80
2017-07-03T15:50:49.620Z,21.70
2017-07-03T15:53:18.629Z,21.60
2017-07-03T15:55:47.290Z,21.70
2017-07-03T15:58:16.429Z,21.40
2017-07-03T16:00:44.898Z,21.30
2017-07-03T16:03:13.457Z,21.00
2017-07-03T16:05:43.665Z,21.00
2017-07-03T16:08:12.360Z,21.10
2017-07-03T16:10:40.924Z,21.00
2017-07-03T16:13:10.236Z,21.20
2017-07-03T16:15:38.769Z,21.20
2017-07-03T16:18:07.784Z,21.20
2017-07-03T16:20:37.969Z,21.20
2017-07-03T16:23:06.465Z,21.20
2017-07-03T16:25:34.968Z,21.20
2017-07-03T16:28:03.445Z,21.20
2017-07-03T16:30:31.987Z,21.20
2017-07-03T16:33:00.673Z,21.30
2017-07-03T16:35:29.213Z,21.20
2017-07-03T16:37:58.334Z,21.20
2017-07-03T16:40:26.895Z,21.20
2017-07-03T16:42:55.668Z,21.30
2017-07-03T16:45:24.243Z,21.40
2017-07-03T16:47:52.866Z,21.40
2017-07-03T16:50:21.435Z,21.20
2017-07-03T16:52:51.107Z,20.80
2017-07-03T16:55:19.610Z,20.80
2017-07-03T16:57:48.199Z,20.70
2017-07-03T17:00:16.920Z,20.60
2017-07-03T17:02:45.744Z,20.60
2017-07-03T17:05:14.232Z,20.30
2017-07-03T17:07:42.927Z,19.60
2017-07-03T17:10:11.452Z,18.90
2017-07-03T17:12:40.912Z,17.90
2017-07-03T17:15:09.547Z,17.70
2017-07-03T17:17:39.417Z,17.30
2017-07-03T17:20:08.113Z,17.20
2017-07-03T17:22:36.933Z,16.90
2017-07-03T17:25:05.660Z,16.80
2017-07-03T17:27:34.489Z,16.80
2017-07-03T17:30:03.456Z,16.80
2017-07-03T17:32:31.963Z,16.80
2017-07-03T17:35:00.512Z,16.80
2017-07-03T17:37:29.890Z,16.80
2017-07-03T17:39:58.501Z,16.70
2017-07-03T17:42:27.054Z,16.70
2017-07-03T17:44:56.385Z,16.70
2017-07-03T17:47:25.567Z,16.70
2017-07-03T17:49:54.102Z,16.80
2017-07-03T17:52:22.594Z,16.80
2017-07-03T17:54:51.097Z,16.70
2017-07-03T17:57:19.596Z,16.70
2017-07-03T17:59:48.125Z,16.70
2017-07-03T18:02:17.035Z,16.80
2017-07-03T18:04:45.783Z,16.80
2017-07-03T18:07:14.365Z,16.90
2017-07-03T18:09:43.364Z,16.80
2017-07-03T18:12:12.156Z,16.80
2017-07-03T18:14:40.941Z,16.80
2017-07-03T18:17:09.580Z,16.70
2017-07-03T18:19:38.153Z,16.80
2017-07-03T18:22:06.881Z,16.60
2017-07-03T18:24:35.819Z,16.60
2017-07-03T18:27:09.791Z,16.60
2017-07-03T18:29:38.565Z,16.50
2017-07-03T18:32:07.327Z,16.50
2017-07-03T18:34:35.966Z,16.50
2017-07-03T18:37:04.835Z,16.50
2017-07-03T18:39:35.483Z,16.40
2017-07-03T18:42:04.079Z,16.30
2017-07-03T18:44:32.746Z,16.30
2017-07-03T18:47:01.448Z,16.30
2017-07-03T18:49:29.964Z,16.20
2017-07-03T18:51:58.621Z,16.20
2017-07-03T18:54:27.187Z,16.10
2017-07-03T18:56:55.689Z,16.00
2017-07-03T18:59:24.197Z,15.90
2017-07-03T19:01:52.735Z,15.80
2017-07-03T19:04:22.493Z,15.70
2017-07-03T19:06:51.013Z,15.70
2017-07-03T19:09:19.529Z,15.70
2017-07-03T19:11:48.152Z,15.50
2017-07-03T19:14:16.700Z,15.60
2017-07-03T19:16:45.404Z,15.60
2017-07-03T19:19:13.945Z,15.60
2017-07-03T19:21:42.694Z,15.60
2017-07-03T19:24:11.629Z,15.50
2017-07-03T19:26:41.760Z,15.50
2017-07-03T19:29:10.802Z,15.40
2017-07-03T19:31:39.696Z,15.40
2017-07-03T19:34:08.275Z,15.40
2017-07-03T19:36:36.860Z,15.40
2017-07-03T19:39:05.493Z,15.40
2017-07-03T19:41:34.294Z,15.40
2017-07-03T19:44:02.920Z,15.40
2017-07-03T19:46:31.434Z,15.30
2017-07-03T19:49:00.041Z,15.30
2017-07-03T19:51:28.917Z,15.30
2017-07-03T19:53:58.169Z,15.30
2017-07-03T19:56:26.943Z,15.30
2017-07-03T19:58:55.708Z,15.30
2017-07-03T20:01:24.316Z,15.30
2017-07-03T20:03:53.713Z,15.10
2017-07-03T20:06:22.525Z,15.20
2017-07-03T20:08:51.198Z,15.10
2017-07-03T20:11:20.391Z,15.10
2017-07-03T20:13:49.021Z,15.00
2017-07-03T20:16:17.563Z,15.00
2017-07-03T20:18:46.361Z,15.00
2017-07-03T20:21:15.169Z,15.00
2017-07-03T20:23:44.556Z,15.10
2017-07-03T20:26:13.181Z,15.00
2017-07-03T20:28:42.050Z,15.10
2017-07-03T20:31:11.389Z,15.00
2017-07-03T20:33:41.902Z,15.00
2017-07-03T20:36:10.687Z,14.90
2017-07-03T20:38:39.250Z,15.00
2017-07-03T20:41:07.910Z,15.00
2017-07-03T20:43:37.265Z,15.00
2017-07-03T20:46:06.018Z,15.00
2017-07-03T20:48:34.701Z,14.90
2017-07-03T20:51:03.481Z,15.00
2017-07-03T20:53:33.308Z,15.00
2017-07-03T20:56:02.289Z,14.90
2017-07-03T20:58:31.082Z,14.90
2017-07-03T21:00:59.852Z,14.90
2017-07-03T21:03:29.484Z,14.90
2017-07-03T21:05:58.245Z,14.80
2017-07-03T21:08:27.680Z,14.80
2017-07-03T21:10:56.723Z,14.80
2017-07-03T21:13:25.772Z,14.90
2017-07-03T21:15:54.460Z,14.80
2017-07-03T21:18:23.033Z,14.70
2017-07-03T21:20:51.943Z,14.70
2017-07-03T21:23:20.587Z,14.70
2017-07-03T21:25:49.932Z,14.60
2017-07-03T21:28:18.595Z,14.50
2017-07-03T21:30:47.093Z,14.50
2017-07-03T21:33:15.877Z,14.50
2017-07-03T21:35:44.390Z,14.50
2017-07-03T21:38:12.872Z,14.40
2017-07-03T21:40:41.382Z,14.40
2017-07-03T21:43:09.882Z,14.40
2017-07-03T21:45:38.371Z,14.50
2017-07-03T21:48:06.886Z,14.50
2017-07-03T21:50:35.370Z,14.40
2017-07-03T21:53:04.280Z,14.40
2017-07-03T21:55:32.940Z,14.40
2017-07-03T21:58:01.452Z,14.30
2017-07-03T22:00:29.948Z,14.40
2017-07-03T22:02:58.588Z,14.40
2017-07-03T22:05:27.524Z,14.40
2017-07-03T22:07:56.046Z,14.40
2017-07-03T22:10:25.309Z,14.40
2017-07-03T22:12:53.847Z,14.30
2017-07-03T22:15:22.556Z,14.30
2017-07-03T22:17:51.495Z,14.40
2017-07-03T22:20:20.025Z,14.30
2017-07-03T22:22:48.658Z,14.30
2017-07-03T22:25:17.471Z,14.20
2017-07-03T22:27:45.993Z,14.20
2017-07-03T22:30:14.828Z,14.20
2017-07-03T22:32:44.038Z,14.10
2017-07-03T22:35:13.266Z,14.10
2017-07-03T22:37:43.380Z,14.00
2017-07-03T22:40:12.725Z,14.00
2017-07-03T22:42:41.799Z,14.00
2017-07-03T22:45:10.384Z,14.00
2017-07-03T22:47:38.920Z,14.00
2017-07-03T22:50:07.456Z,14.00
2017-07-03T22:52:35.997Z,13.90
2017-07-03T22:55:04.707Z,14.00
2017-07-03T22:57:33.241Z,13.90
2017-07-03T23:00:01.951Z,13.80
2017-07-03T23:02:30.686Z,13.90
2017-07-03T23:04:59.275Z,13.90
2017-07-03T23:07:27.754Z,13.90
2017-07-03T23:09:56.518Z,13.90
2017-07-03T23:12:25.149Z,13.90
2017-07-03T23:14:53.641Z,13.90
2017-07-03T23:17:22.489Z,13.90
2017-07-03T23:19:51.125Z,13.90
2017-07-03T23:22:19.688Z,13.90
2017-07-03T23:24:48.389Z,13.90
2017-07-03T23:27:17.274Z,13.90
2017-07-03T23:29:45.730Z,14.00
2017-07-03T23:32:14.211Z,14.00
2017-07-03T23:34:42.984Z,14.00
2017-07-03T23:37:11.491Z,14.00
2017-07-03T23:39:39.964Z,14.00
2017-07-03T23:42:08.450Z,14.10
2017-07-03T23:44:37.009Z,14.00
2017-07-03T23:47:05.465Z,14.00
2017-07-03T23:49:35.305Z,14.00
2017-07-03T23:52:03.756Z,14.00
2017-07-03T23:54:32.413Z,14.00
2017-07-03T23:57:01.203Z,14.00
2017-07-03T23:59:29.889Z,14.00
